Time;durP1;ratioP1;P1;durP2;ratioP2;P2;SDS_P1;SDS_P2;PMS_P1;PMS_P2;Temp;Humidity;BMP_temperature;BMP_pressure;BME280_temperature;BME280_humidity;BME280_pressure;Samples;Min_cycle;Max_cycle;Signal;HPM_P1;HPM_P2
2020/12/23 00:02:09;;;;;;;22.02;5.60;;;28.30;81.30;;;;;;6064106;23;20002;-92
2020/12/23 00:04:36;;;;;;;21.23;5.60;;;28.30;82.20;;;;;;6182406;23;20000;-91
2020/12/23 00:10:43;;;;;;;28.90;7.60;;;28.20;83.20;;;;;;6117887;23;20293;-90
2020/12/23 00:13:46;;;;;;;;;;;;;;;;;;;;;
2020/12/23 00:16:13;;;;;;;17.13;7.22;;;28.00;82.40;;;;;;6029467;23;20008;-92
2020/12/23 00:19:02;;;;;;;16.63;6.13;;;28.00;82.80;;;;;;6033003;23;20006;-95
2020/12/23 00:21:28;;;;;;;14.63;4.32;;;27.90;83.80;;;;;;6029171;23;20006;-92
2020/12/23 00:23:55;;;;;;;10.60;4.38;;;27.90;82.90;;;;;;6004258;23;20022;-91
2020/12/23 00:26:21;;;;;;;15.55;4.85;;;27.80;82.10;;;;;;6004271;23;20004;-90
2020/12/23 00:29:01;;;;;;;11.77;4.07;;;27.70;84.60;;;;;;6086730;23;20242;-92
2020/12/23 00:31:48;;;;;;;12.88;3.60;;;27.70;83.90;;;;;;6114887;23;20029;-93
2020/12/23 00:34:24;;;;;;;5.95;2.88;;;27.70;84.10;;;;;;6117796;23;20034;-93
2020/12/23 00:37:30;;;;;;;7.47;3.28;;;27.60;83.20;;;;;;6094699;23;20002;-95
2020/12/23 00:40:31;;;;;;;6.97;3.22;;;27.60;83.90;;;;;;6007397;23;19999;-90
2020/12/23 00:46:19;;;;;;;13.38;3.17;;;27.30;85.60;;;;;;6125862;23;19998;-93
2020/12/23 00:49:13;;;;;;;8.52;3.75;;;27.30;85.10;;;;;;6066529;23;20239;-94
2020/12/23 00:52:04;;;;;;;10.88;4.18;;;27.30;85.60;;;;;;6075333;23;20039;-92
2020/12/23 00:54:53;;;;;;;13.20;6.40;;;27.20;85.70;;;;;;6183326;23;19997;-90
2020/12/23 00:57:38;;;;;;;10.93;4.85;;;27.20;85.10;;;;;;6234765;23;20012;-92
2020/12/23 01:00:06;;;;;;;10.43;4.50;;;27.30;86.00;;;;;;6207253;23;20001;-88
2020/12/23 01:02:47;;;;;;;7.80;4.15;;;27.20;85.40;;;;;;6206007;23;20046;-86
2020/12/23 01:05:23;;;;;;;13.40;4.40;;;27.20;84.80;;;;;;6184664;23;20056;-92
2020/12/23 01:08:12;;;;;;;8.73;4.65;;;27.30;84.80;;;;;;6204935;23;20165;-90
2020/12/23 01:10:42;;;;;;;14.55;5.80;;;27.30;85.20;;;;;;6205499;23;19997;-90
2020/12/23 01:13:08;;;;;;;7.03;4.50;;;27.30;84.50;;;;;;6207249;23;20000;-88
2020/12/23 01:15:44;;;;;;;8.60;5.22;;;27.30;84.80;;;;;;6203483;23;20015;-89
2020/12/23 01:18:15;;;;;;;8.65;4.88;;;27.30;84.50;;;;;;6230186;23;19996;-90
2020/12/23 01:20:44;;;;;;;7.55;4.72;;;27.30;84.50;;;;;;6204572;23;20008;-90
2020/12/23 01:23:14;;;;;;;10.15;5.72;;;27.30;84.30;;;;;;6205478;23;19997;-94
2020/12/23 01:25:49;;;;;;;11.43;5.28;;;27.30;84.80;;;;;;6207336;23;20043;-95
2020/12/23 01:28:25;;;;;;;7.43;4.35;;;27.20;84.10;;;;;;6234829;23;19992;-92
2020/12/23 01:31:21;;;;;;;;;;;;;;;;;;;;;
2020/12/23 01:33:53;;;;;;;7.90;3.90;;;27.10;84.90;;;;;;6231036;23;20000;-89
2020/12/23 01:36:26;;;;;;;6.65;3.83;;;27.10;84.80;;;;;;6234672;23;19985;-93
2020/12/23 01:39:03;;;;;;;7.65;4.25;;;27.00;85.60;;;;;;6208627;23;20184;-91
2020/12/23 01:41:30;;;;;;;6.47;3.72;;;27.00;84.90;;;;;;6203278;23;20023;-92
2020/12/23 01:43:58;;;;;;;5.07;3.05;;;27.00;85.30;;;;;;6204560;23;20043;-93
2020/12/23 01:46:57;;;;;;;6.35;3.00;;;27.00;84.60;;;;;;6205769;23;19993;-88
2020/12/23 01:49:34;;;;;;;6.80;3.38;;;26.90;85.70;;;;;;6212163;23;20192;-90
2020/12/23 01:52:06;;;;;;;6.68;2.85;;;26.90;85.80;;;;;;6231827;23;20023;-86
2020/12/23 01:54:34;;;;;;;6.18;2.90;;;26.90;85.10;;;;;;6230996;23;20023;-88
2020/12/23 01:57:02;;;;;;;4.55;2.97;;;26.90;85.00;;;;;;6205799;23;20315;-87
2020/12/23 01:59:33;;;;;;;3.28;2.63;;;26.90;85.10;;;;;;6180593;23;19997;-86
2020/12/23 02:02:31;;;;;;;3.73;2.90;;;26.80;84.70;;;;;;6229586;23;20012;-87
2020/12/23 02:05:02;;;;;;;2.70;2.17;;;26.80;85.20;;;;;;6231254;23;20531;-88
2020/12/23 02:10:32;;;;;;;5.30;3.00;;;26.80;85.30;;;;;;6173354;23;20005;-89
2020/12/23 02:13:29;;;;;;;5.70;4.00;;;26.80;85.40;;;;;;6224831;23;19996;-87
2020/12/23 02:15:55;;;;;;;6.07;4.35;;;26.80;85.50;;;;;;6212855;23;20009;-91
2020/12/23 02:18:42;;;;;;;;;;;;;;;;;;;;;
2020/12/23 02:21:26;;;;;;;;;;;;;;;;;;;;;
2020/12/23 02:24:28;;;;;;;8.68;4.63;;;26.80;85.50;;;;;;6236203;23;19997;-88
2020/12/23 02:27:21;;;;;;;4.30;3.55;;;26.70;86.00;;;;;;6202202;23;20008;-88
2020/12/23 02:30:06;;;;;;;;;;;;;;;;;;;;;
2020/12/23 02:32:34;;;;;;;6.00;3.30;;;26.80;85.30;;;;;;6184232;23;19997;-90
2020/12/23 02:35:35;;;;;;;4.80;2.63;;;26.80;85.00;;;;;;6234863;23;20000;-90
2020/12/23 02:41:04;;;;;;;6.03;2.35;;;26.60;85.90;;;;;;6151848;23;20016;-89
2020/12/23 02:44:05;;;;;;;3.70;2.15;;;26.70;86.00;;;;;;6221905;23;20000;-86
2020/12/23 02:46:38;;;;;;;4.97;2.33;;;26.60;85.70;;;;;;6204687;23;19996;-87
2020/12/23 02:49:10;;;;;;;5.22;2.75;;;26.50;86.00;;;;;;6233318;23;20284;-89
2020/12/23 02:51:40;;;;;;;4.93;2.58;;;26.50;85.80;;;;;;6232482;23;20086;-89
2020/12/23 02:54:18;;;;;;;;;;;;;;;;;;;;;
2020/12/23 02:56:54;;;;;;;2.90;1.90;;;26.50;85.90;;;;;;6208841;23;20007;-89
2020/12/23 02:59:23;;;;;;;4.63;2.28;;;26.50;86.10;;;;;;6183177;23;20004;-89
2020/12/23 03:01:59;;;;;;;4.70;2.15;;;26.40;86.30;;;;;;6228545;23;19997;-88
2020/12/23 03:04:26;;;;;;;95.05;32.67;;;26.40;86.40;;;;;;6227821;23;20100;-90
2020/12/23 03:07:07;;;;;;;198.25;74.22;;;26.40;86.50;;;;;;6200871;23;20031;-87
2020/12/23 03:09:42;;;;;;;107.32;42.65;;;26.30;86.20;;;;;;6227515;23;19992;-89
2020/12/23 03:12:09;;;;;;;71.50;31.05;;;26.30;86.80;;;;;;6226933;23;19992;-89
2020/12/23 03:14:36;;;;;;;76.60;27.77;;;26.30;86.50;;;;;;6200078;23;20001;-89
2020/12/23 03:17:03;;;;;;;79.82;26.00;;;26.20;86.80;;;;;;6226749;23;20015;-89
2020/12/23 03:19:41;;;;;;;82.25;24.20;;;26.30;86.50;;;;;;6198811;23;20015;-89
2020/12/23 03:22:27;;;;;;;29.95;10.60;;;26.30;86.90;;;;;;6199961;23;19992;-89
2020/12/23 03:24:54;;;;;;;35.70;11.90;;;26.20;87.10;;;;;;6201202;23;20015;-89
2020/12/23 03:27:40;;;;;;;28.65;11.25;;;26.20;87.30;;;;;;6201843;23;20044;-89
2020/12/23 03:30:16;;;;;;;18.40;7.85;;;26.20;87.50;;;;;;6231347;23;19997;-89
2020/12/23 03:32:45;;;;;;;8.57;3.72;;;26.20;87.40;;;;;;6206636;23;19993;-89
2020/12/23 03:35:23;;;;;;;9.50;3.97;;;26.10;87.10;;;;;;6203789;23;20000;-88
2020/12/23 03:38:18;;;;;;;9.05;3.35;;;26.20;87.10;;;;;;6231865;23;19999;-89
2020/12/23 03:40:48;;;;;;;3.55;2.45;;;26.10;86.90;;;;;;6163981;23;19989;-89
2020/12/23 03:43:17;;;;;;;6.13;3.05;;;26.00;87.10;;;;;;6227154;23;19997;-90
2020/12/23 03:45:49;;;;;;;7.07;3.13;;;26.00;87.30;;;;;;6202193;23;20039;-87
2020/12/23 03:48:26;;;;;;;;;;;;;;;;;;;;;
2020/12/23 03:50:54;;;;;;;8.55;3.83;;;25.90;88.50;;;;;;6228217;23;20001;-90
2020/12/23 03:53:30;;;;;;;14.45;4.47;;;25.80;88.20;;;;;;6201277;23;20024;-90
2020/12/23 03:56:08;;;;;;;12.85;4.95;;;25.90;87.90;;;;;;6200720;23;20043;-90
2020/12/23 03:58:48;;;;;;;8.38;3.13;;;25.90;89.10;;;;;;6202172;23;20004;-89
2020/12/23 04:01:18;;;;;;;7.90;3.05;;;25.90;88.50;;;;;;6225409;23;19996;-89
2020/12/23 04:03:53;;;;;;;9.45;3.55;;;25.90;88.10;;;;;;6225622;23;20020;-88
2020/12/23 04:06:25;;;;;;;9.40;3.20;;;25.90;88.20;;;;;;6176646;23;20028;-88
2020/12/23 04:08:52;;;;;;;8.68;3.97;;;25.80;88.20;;;;;;6199931;23;20080;-90
2020/12/23 04:11:22;;;;;;;6.85;3.00;;;25.80;88.20;;;;;;6199692;23;19997;-90
2020/12/23 04:13:48;;;;;;;3.50;1.73;;;25.80;88.30;;;;;;6200200;23;20000;-89
2020/12/23 04:16:15;;;;;;;6.30;2.60;;;25.80;88.20;;;;;;6199236;23;19989;-89
2020/12/23 04:18:41;;;;;;;9.90;4.07;;;25.80;88.10;;;;;;6225703;23;20234;-89
2020/12/23 04:21:08;;;;;;;5.35;2.85;;;25.80;88.30;;;;;;6199474;23;20008;-89
2020/12/23 04:23:35;;;;;;;4.15;2.17;;;25.80;87.60;;;;;;6199316;23;20000;-89
2020/12/23 04:26:01;;;;;;;2.90;2.00;;;25.80;87.60;;;;;;6199237;23;20001;-88
2020/12/23 04:28:28;;;;;;;3.58;2.08;;;25.80;87.60;;;;;;6201060;23;20276;-89
2020/12/23 04:30:55;;;;;;;6.63;2.83;;;25.80;87.80;;;;;;6200343;23;20001;-88
2020/12/23 04:33:24;;;;;;;7.15;2.25;;;25.70;87.70;;;;;;6200741;23;19996;-89
2020/12/23 04:35:51;;;;;;;7.40;2.53;;;25.70;87.30;;;;;;6227807;23;19988;-88
2020/12/23 04:38:18;;;;;;;3.50;1.98;;;25.70;87.10;;;;;;6200896;23;19993;-90
2020/12/23 04:40:45;;;;;;;5.50;2.10;;;25.70;86.70;;;;;;6200692;23;20001;-88
2020/12/23 04:43:13;;;;;;;4.90;2.13;;;25.70;86.60;;;;;;6201036;23;20001;-88
2020/12/23 04:45:40;;;;;;;3.13;2.10;;;25.70;86.60;;;;;;6225479;23;20072;-88
2020/12/23 04:48:12;;;;;;;4.95;1.95;;;25.70;86.90;;;;;;6200889;23;20000;-87
2020/12/23 04:50:43;;;;;;;5.60;1.75;;;25.70;86.60;;;;;;6227091;23;19993;-87
2020/12/23 04:53:24;;;;;;;3.88;1.92;;;25.60;86.30;;;;;;6227447;23;20020;-87
2020/12/23 04:56:04;;;;;;;3.20;2.20;;;25.60;85.80;;;;;;6200489;23;20245;-88
2020/12/23 04:58:34;;;;;;;5.25;2.70;;;25.60;85.70;;;;;;6226402;23;20000;-87
2020/12/23 05:01:01;;;;;;;7.35;3.17;;;25.60;86.10;;;;;;6227087;23;20031;-86
2020/12/23 05:03:28;;;;;;;5.93;2.13;;;25.60;85.70;;;;;;6227783;23;20273;-86
2020/12/23 05:05:54;;;;;;;4.28;1.85;;;25.60;85.60;;;;;;6226997;23;20273;-88
2020/12/23 05:08:21;;;;;;;4.85;2.20;;;25.60;85.50;;;;;;6227967;23;20000;-90
2020/12/23 05:10:56;;;;;;;4.63;1.83;;;25.60;85.30;;;;;;6208837;23;20000;-95
2020/12/23 05:13:23;;;;;;;3.47;1.88;;;25.60;85.30;;;;;;6200661;23;19993;-88
2020/12/23 05:15:50;;;;;;;3.40;1.40;;;25.60;84.80;;;;;;6227418;23;19993;-88
2020/12/23 05:18:16;;;;;;;3.47;1.98;;;25.60;84.90;;;;;;6200365;23;20015;-87
2020/12/23 05:20:45;;;;;;;5.05;1.67;;;25.50;84.20;;;;;;6225796;23;20016;-88
2020/12/23 05:23:20;;;;;;;3.78;1.85;;;25.50;84.60;;;;;;6227262;23;19996;-88
2020/12/23 05:26:15;;;;;;;3.50;1.70;;;25.50;85.00;;;;;;6226849;23;19992;-88
2020/12/23 05:28:43;;;;;;;3.10;1.73;;;25.40;85.90;;;;;;6200347;23;19996;-87
2020/12/23 05:31:12;;;;;;;4.03;1.73;;;25.40;85.00;;;;;;6200086;23;20001;-90
2020/12/23 05:33:40;;;;;;;4.55;1.80;;;25.40;86.00;;;;;;6202962;23;19997;-87
2020/12/23 05:36:13;;;;;;;4.10;2.05;;;25.40;87.00;;;;;;6200379;23;19989;-89
2020/12/23 05:38:39;;;;;;;;;;;25.40;86.70;;;;;;6201190;23;20007;-88
2020/12/23 05:41:08;;;;;;;2.40;1.65;;;25.40;86.10;;;;;;6227227;23;19920;-90
2020/12/23 05:43:35;;;;;;;2.72;1.73;;;25.30;87.40;;;;;;6200484;23;20073;-89
2020/12/23 05:46:04;;;;;;;3.30;2.00;;;25.30;87.20;;;;;;6199873;23;19996;-88
2020/12/23 05:48:34;;;;;;;4.47;1.70;;;25.20;87.80;;;;;;6226759;23;20050;-89
2020/12/23 05:51:01;;;;;;;4.35;2.28;;;25.10;87.20;;;;;;6200571;23;19996;-88
2020/12/23 05:53:30;;;;;;;3.33;1.88;;;25.10;87.40;;;;;;6201666;23;20008;-88
2020/12/23 05:55:57;;;;;;;3.35;1.67;;;25.10;87.30;;;;;;6228212;23;20003;-89
2020/12/23 05:58:27;;;;;;;3.50;1.70;;;25.10;87.20;;;;;;6201165;23;20011;-89
2020/12/23 06:00:57;;;;;;;2.50;1.60;;;25.00;87.10;;;;;;6201512;23;20220;-89
2020/12/23 06:03:30;;;;;;;4.60;1.60;;;25.10;86.20;;;;;;6201159;23;20059;-89
2020/12/23 06:05:59;;;;;;;2.97;1.33;;;25.10;85.10;;;;;;6201900;23;20003;-89
2020/12/23 06:08:32;;;;;;;2.83;1.50;;;25.10;84.70;;;;;;6201501;23;20008;-89
2020/12/23 06:11:10;;;;;;;;;;;25.10;83.60;;;;;;6201877;23;20016;-89
2020/12/23 06:14:11;;;;;;;1.63;1.48;;;25.10;83.60;;;;;;6201877;23;20210;-89
2020/12/23 06:16:50;;;;;;;1.75;1.40;;;25.10;83.20;;;;;;6200505;23;19996;-89
2020/12/23 06:19:20;;;;;;;1.70;1.30;;;25.10;82.80;;;;;;6200744;23;20013;-88
2020/12/23 06:21:47;;;;;;;2.20;1.52;;;25.00;83.00;;;;;;6227446;23;19993;-89
2020/12/23 06:24:14;;;;;;;3.20;1.20;;;25.00;82.60;;;;;;6200290;23;19993;-90
2020/12/23 06:26:44;;;;;;;3.30;1.30;;;25.00;82.90;;;;;;6200608;23;20019;-88
2020/12/23 06:29:13;;;;;;;1.73;1.33;;;25.00;82.40;;;;;;6200245;23;20288;-88
2020/12/23 06:32:01;;;;;;;4.28;1.85;;;24.90;82.20;;;;;;6200082;23;19996;-88
2020/12/23 06:34:33;;;;;;;3.95;2.40;;;24.90;82.80;;;;;;6200635;23;19997;-88
2020/12/23 06:37:00;;;;;;;2.10;1.73;;;24.90;82.50;;;;;;6227080;23;19989;-88
2020/12/23 06:39:29;;;;;;;2.83;1.60;;;24.80;82.90;;;;;;6199971;23;20174;-88
2020/12/23 06:42:02;;;;;;;2.38;1.27;;;24.90;82.40;;;;;;6199985;23;20096;-87
2020/12/23 06:44:44;;;;;;;3.05;1.25;;;24.80;81.10;;;;;;6199973;23;19997;-88
2020/12/23 06:47:20;;;;;;;2.95;1.10;;;24.90;80.90;;;;;;6227437;23;20000;-89
2020/12/23 06:49:48;;;;;;;2.33;1.33;;;24.80;81.10;;;;;;6200488;23;20004;-89
2020/12/23 06:55:01;;;;;;;1.67;1.20;;;24.80;80.90;;;;;;6227517;23;20043;-89
2020/12/23 06:57:38;;;;;;;2.20;1.23;;;24.80;80.90;;;;;;6200644;23;20008;-90
2020/12/23 07:00:21;;;;;;;2.42;1.00;;;24.80;80.50;;;;;;6201471;23;20001;-89
2020/12/23 07:03:03;;;;;;;1.63;1.13;;;24.80;80.30;;;;;;6226926;23;20012;-89
2020/12/23 07:05:41;;;;;;;2.35;1.17;;;24.80;80.60;;;;;;6200795;23;20052;-89
2020/12/23 07:08:11;;;;;;;1.95;1.20;;;24.70;80.40;;;;;;6227525;23;20001;-89
2020/12/23 07:10:49;;;;;;;2.10;0.95;;;24.70;80.30;;;;;;6200629;23;20219;-88
2020/12/23 07:13:24;;;;;;;2.22;1.02;;;24.70;80.70;;;;;;6226306;23;19996;-88
2020/12/23 07:15:51;;;;;;;1.90;1.05;;;24.70;80.80;;;;;;6225124;23;20064;-88
2020/12/23 07:18:23;;;;;;;2.50;1.00;;;24.60;80.10;;;;;;6226106;23;20005;-89
2020/12/23 07:21:01;;;;;;;1.48;0.90;;;24.60;80.30;;;;;;6200064;23;20173;-89
2020/12/23 07:23:30;;;;;;;1.73;1.08;;;24.60;80.30;;;;;;6226606;23;20304;-89
2020/12/23 07:26:05;;;;;;;2.10;0.90;;;24.60;79.50;;;;;;6200164;23;20008;-89
2020/12/23 07:28:38;;;;;;;2.10;1.13;;;24.60;79.80;;;;;;6226699;23;20007;-89
2020/12/23 07:31:06;;;;;;;1.90;1.08;;;24.60;79.90;;;;;;6200194;23;20184;-88
2020/12/23 07:33:39;;;;;;;2.13;1.02;;;24.50;79.60;;;;;;6199783;23;19996;-88
2020/12/23 07:36:07;;;;;;;1.63;0.75;;;24.50;79.90;;;;;;6200125;23;20035;-88
2020/12/23 07:38:37;;;;;;;1.73;0.80;;;24.50;80.10;;;;;;6199551;23;20095;-88
2020/12/23 07:41:04;;;;;;;1.48;1.00;;;24.50;80.70;;;;;;6226428;23;20020;-90
2020/12/23 07:43:31;;;;;;;2.17;0.98;;;24.40;80.20;;;;;;6226841;23;20192;-89
2020/12/23 07:45:58;;;;;;;1.55;1.10;;;24.40;80.60;;;;;;6200766;23;20005;-89
2020/12/23 07:48:28;;;;;;;1.08;0.90;;;24.40;80.90;;;;;;6201002;23;20001;-88
2020/12/23 07:50:57;;;;;;;1.65;1.10;;;24.40;80.80;;;;;;6229017;23;20180;-88
2020/12/23 07:53:29;;;;;;;2.60;0.80;;;24.30;82.90;;;;;;6202073;23;19997;-89
2020/12/23 07:56:07;;;;;;;1.10;0.82;;;24.30;81.60;;;;;;6227052;23;20343;-87
2020/12/23 07:58:35;;;;;;;1.55;0.80;;;24.30;81.40;;;;;;6229284;23;20000;-87
2020/12/23 08:01:07;;;;;;;2.60;0.98;;;24.30;82.10;;;;;;6202176;23;19997;-88
2020/12/23 08:03:34;;;;;;;1.50;0.93;;;24.30;81.90;;;;;;6203017;23;20016;-88
2020/12/23 08:06:11;;;;;;;1.42;1.00;;;24.20;82.00;;;;;;6203379;23;20068;-89
2020/12/23 08:08:39;;;;;;;1.63;0.93;;;24.20;82.50;;;;;;6228420;23;20000;-87
2020/12/23 08:11:14;;;;;;;1.70;1.10;;;24.20;82.90;;;;;;6228623;23;20007;-88
2020/12/23 08:13:42;;;;;;;3.45;1.10;;;24.20;82.60;;;;;;6202888;23;19996;-88
2020/12/23 08:16:16;;;;;;;2.08;0.90;;;24.10;83.10;;;;;;6203176;23;20059;-87
2020/12/23 08:18:44;;;;;;;1.27;0.90;;;24.10;83.40;;;;;;6230468;23;20008;-86
2020/12/23 08:21:12;;;;;;;0.88;0.80;;;24.10;83.40;;;;;;6230220;23;20000;-87
2020/12/23 08:23:40;;;;;;;3.13;1.23;;;24.10;84.20;;;;;;6203583;23;19997;-89
2020/12/23 08:26:08;;;;;;;1.40;1.00;;;24.10;83.80;;;;;;6203439;23;20005;-89
2020/12/23 08:28:39;;;;;;;1.98;1.10;;;24.10;83.80;;;;;;6229831;23;19997;-88
2020/12/23 08:31:11;;;;;;;1.60;1.10;;;24.10;84.10;;;;;;6228911;23;20051;-89
2020/12/23 08:33:38;;;;;;;3.40;1.10;;;24.10;84.20;;;;;;6201976;23;20001;-89
2020/12/23 08:36:06;;;;;;;2.85;1.40;;;24.10;84.50;;;;;;6202447;23;19997;-89
2020/12/23 08:38:32;;;;;;;2.80;1.10;;;24.10;84.20;;;;;;6202077;23;19997;-88
2020/12/23 08:41:00;;;;;;;2.35;1.10;;;24.10;84.40;;;;;;6229393;23;20000;-88
2020/12/23 08:43:31;;;;;;;1.38;1.00;;;24.10;84.40;;;;;;6227694;23;20058;-89
2020/12/23 08:46:00;;;;;;;2.35;1.10;;;24.10;84.70;;;;;;6227337;23;20015;-89
2020/12/23 08:48:30;;;;;;;1.63;1.15;;;24.10;84.80;;;;;;6201833;23;20001;-89
2020/12/23 08:50:59;;;;;;;1.10;0.80;;;24.10;84.80;;;;;;6201669;23;20001;-89
2020/12/23 08:53:36;;;;;;;1.92;0.90;;;24.20;84.70;;;;;;6201415;23;20027;-89
2020/12/23 08:56:48;;;;;;;1.50;1.17;;;24.10;84.70;;;;;;6201601;23;20307;-89
2020/12/23 08:59:16;;;;;;;1.67;0.80;;;24.10;83.40;;;;;;6107232;23;20001;-89
2020/12/23 09:01:45;;;;;;;1.08;0.95;;;24.10;82.60;;;;;;6082951;23;20006;-90
2020/12/23 09:04:13;;;;;;;2.15;0.85;;;24.10;82.80;;;;;;6161878;23;20000;-90
2020/12/23 09:06:42;;;;;;;1.77;0.90;;;24.10;82.20;;;;;;6226239;23;20000;-89
2020/12/23 09:09:24;;;;;;;1.92;0.93;;;24.10;82.20;;;;;;6201248;23;20007;-90
2020/12/23 09:11:53;;;;;;;1.85;0.85;;;24.10;82.30;;;;;;6200965;23;20005;-90
2020/12/23 09:14:38;;;;;;;1.35;1.00;;;24.10;82.10;;;;;;6227302;23;19997;-90
2020/12/23 09:17:23;;;;;;;1.88;0.90;;;24.00;82.70;;;;;;6227694;23;20001;-91
2020/12/23 09:19:53;;;;;;;1.25;0.80;;;24.00;82.60;;;;;;6200896;23;20012;-90
2020/12/23 09:22:37;;;;;;;4.03;1.30;;;24.00;82.20;;;;;;6228046;23;19992;-89
2020/12/23 09:25:17;;;;;;;2.15;1.02;;;24.00;83.10;;;;;;6201713;23;20004;-89
2020/12/23 09:27:48;;;;;;;1.73;1.10;;;24.00;83.00;;;;;;6228110;23;20007;-89
2020/12/23 09:30:35;;;;;;;1.20;1.10;;;24.00;83.10;;;;;;6228054;23;19992;-89
2020/12/23 09:33:02;;;;;;;1.40;0.93;;;24.00;83.40;;;;;;6201790;23;19993;-88
2020/12/23 09:35:29;;;;;;;2.22;1.00;;;24.00;84.90;;;;;;6201502;23;19992;-90
2020/12/23 09:38:05;;;;;;;2.58;1.20;;;24.00;84.40;;;;;;6202482;23;20351;-89
2020/12/23 09:40:32;;;;;;;2.30;1.58;;;24.00;84.60;;;;;;6202531;23;20000;-91
2020/12/23 09:42:59;;;;;;;2.15;1.42;;;24.00;85.10;;;;;;6202457;23;20001;-90
2020/12/23 09:45:31;;;;;;;2.03;1.77;;;24.10;85.50;;;;;;6202745;23;19996;-90
2020/12/23 09:47:58;;;;;;;2.00;1.17;;;24.10;86.00;;;;;;6202658;23;20001;-89
2020/12/23 09:50:25;;;;;;;1.77;1.35;;;24.10;85.40;;;;;;6202072;23;19997;-89
2020/12/23 09:52:51;;;;;;;1.52;1.20;;;24.10;85.70;;;;;;6228449;23;19996;-89
2020/12/23 09:55:18;;;;;;;2.42;1.35;;;24.20;85.90;;;;;;6201898;23;19996;-89
2020/12/23 09:57:45;;;;;;;2.03;1.30;;;24.20;86.00;;;;;;6202524;23;20020;-89
2020/12/23 10:00:12;;;;;;;3.33;1.20;;;24.20;86.30;;;;;;6202256;23;19993;-86
2020/12/23 10:02:38;;;;;;;2.47;1.23;;;24.20;85.50;;;;;;6201835;23;20011;-88
2020/12/23 10:05:05;;;;;;;2.30;1.40;;;24.30;85.40;;;;;;6229576;23;20338;-89
2020/12/23 10:07:32;;;;;;;3.83;1.60;;;24.30;85.80;;;;;;6204534;23;20007;-89
2020/12/23 10:09:58;;;;;;;1.65;1.38;;;24.40;85.60;;;;;;6227711;23;20055;-89
2020/12/23 10:12:25;;;;;;;3.70;1.30;;;24.30;85.10;;;;;;6228359;23;20000;-87
2020/12/23 10:14:52;;;;;;;1.50;1.10;;;24.30;84.60;;;;;;6201053;23;20188;-89
2020/12/23 10:17:19;;;;;;;2.25;1.20;;;24.30;84.50;;;;;;6227177;23;19997;-89
2020/12/23 10:19:46;;;;;;;2.47;1.25;;;24.30;84.20;;;;;;6227048;23;20009;-89
2020/12/23 10:22:12;;;;;;;3.35;1.23;;;24.30;84.40;;;;;;6226052;23;20000;-88
2020/12/23 10:24:39;;;;;;;2.40;1.30;;;24.30;84.30;;;;;;6199753;23;19997;-88
2020/12/23 10:27:06;;;;;;;3.88;1.27;;;24.30;84.30;;;;;;6200692;23;19992;-87
2020/12/23 10:29:33;;;;;;;2.42;1.42;;;24.30;84.70;;;;;;6226649;23;19996;-87
2020/12/23 10:32:00;;;;;;;3.30;1.35;;;24.30;84.60;;;;;;6226966;23;19996;-89
2020/12/23 10:34:27;;;;;;;3.80;1.70;;;24.30;84.30;;;;;;6200108;23;20225;-88
2020/12/23 10:36:55;;;;;;;2.15;1.15;;;24.30;84.10;;;;;;6200145;23;19993;-88
2020/12/23 10:39:22;;;;;;;1.63;1.20;;;24.30;83.20;;;;;;6226635;23;19997;-88
2020/12/23 10:41:53;;;;;;;3.22;1.50;;;24.30;82.70;;;;;;6225097;23;20180;-87
2020/12/23 10:44:21;;;;;;;2.35;1.48;;;24.20;82.70;;;;;;6200134;23;20004;-88
2020/12/23 10:46:55;;;;;;;2.88;1.50;;;24.20;82.80;;;;;;6226543;23;19993;-88
2020/12/23 10:49:22;;;;;;;3.33;1.33;;;24.20;82.60;;;;;;6226422;23;20001;-88
2020/12/23 10:51:53;;;;;;;6.43;1.33;;;24.10;82.60;;;;;;6199864;23;19993;-88
2020/12/23 10:54:20;;;;;;;1.10;0.90;;;24.10;83.00;;;;;;6227612;23;20007;-88
2020/12/23 10:56:47;;;;;;;2.28;1.23;;;24.10;82.80;;;;;;6228448;23;20014;-88
2020/12/23 10:59:14;;;;;;;3.63;1.10;;;24.00;82.60;;;;;;6200736;23;19996;-86
2020/12/23 11:01:40;;;;;;;2.08;1.35;;;24.00;82.60;;;;;;6201527;23;20060;-89
2020/12/23 11:04:07;;;;;;;3.58;1.17;;;24.00;83.00;;;;;;6203207;23;20008;-88
2020/12/23 11:06:34;;;;;;;3.08;1.50;;;24.00;83.30;;;;;;6228209;23;19999;-88
2020/12/23 11:09:03;;;;;;;2.78;1.38;;;24.00;83.10;;;;;;6201786;23;20011;-90
2020/12/23 11:11:30;;;;;;;3.88;1.30;;;23.90;83.40;;;;;;6202229;23;20004;-88
2020/12/23 11:13:57;;;;;;;2.67;1.42;;;24.00;82.30;;;;;;6201148;23;20000;-91
2020/12/23 11:16:25;;;;;;;8.13;3.60;;;23.90;82.80;;;;;;6226830;23;19988;-92
2020/12/23 11:18:52;;;;;;;7.13;2.00;;;24.00;81.70;;;;;;6202706;23;20016;-89
2020/12/23 11:21:19;;;;;;;5.93;3.30;;;24.00;81.10;;;;;;6200339;23;20047;-89
2020/12/23 11:23:46;;;;;;;3.85;2.42;;;24.00;80.80;;;;;;6200949;23;20007;-90
2020/12/23 11:26:20;;;;;;;3.97;1.90;;;24.00;81.10;;;;;;6201726;23;20008;-90
2020/12/23 11:28:47;;;;;;;3.47;1.83;;;24.00;81.40;;;;;;6200059;23;20348;-89
2020/12/23 11:31:15;;;;;;;3.38;2.25;;;24.00;81.90;;;;;;6226680;23;20008;-91
2020/12/23 11:33:42;;;;;;;8.30;2.63;;;24.00;82.90;;;;;;6228082;23;19992;-89
2020/12/23 11:36:09;;;;;;;29.83;6.47;;;24.00;82.70;;;;;;6202010;23;19996;-89
2020/12/23 11:38:36;;;;;;;10.25;2.63;;;23.90;82.30;;;;;;6204214;23;19992;-89
2020/12/23 11:41:11;;;;;;;10.00;2.00;;;23.80;85.00;;;;;;6200183;23;20007;-89
2020/12/23 11:43:38;;;;;;;2.40;1.60;;;23.60;88.00;;;;;;6199861;23;20007;-89
2020/12/23 11:46:06;;;;;;;2.90;2.10;;;23.50;90.00;;;;;;6201494;23;20188;-89
2020/12/23 11:48:36;;;;;;;25.88;4.55;;;23.50;90.20;;;;;;6201132;23;20006;-88
2020/12/23 11:51:06;;;;;;;31.42;5.38;;;23.60;90.20;;;;;;6199489;23;20000;-86
2020/12/23 11:53:33;;;;;;;34.40;4.78;;;23.60;90.10;;;;;;6224194;23;20285;-88
2020/12/23 11:56:01;;;;;;;5.45;2.22;;;23.80;89.60;;;;;;6199775;23;20000;-92
2020/12/23 11:58:31;;;;;;;15.00;3.47;;;23.80;89.30;;;;;;6200639;23;20288;-91
2020/12/23 12:00:58;;;;;;;10.18;2.38;;;23.90;88.90;;;;;;6200047;23;20008;-89
2020/12/23 12:03:24;;;;;;;4.20;2.60;;;24.00;88.30;;;;;;6226668;23;20006;-88
2020/12/23 12:05:56;;;;;;;6.57;2.47;;;24.10;87.80;;;;;;6199290;23;20188;-88
2020/12/23 12:08:29;;;;;;;5.68;3.15;;;24.10;88.20;;;;;;6225969;23;20047;-87
2020/12/23 12:10:56;;;;;;;6.53;2.95;;;24.10;87.80;;;;;;6225676;23;19993;-88
2020/12/23 12:13:24;;;;;;;3.42;2.17;;;24.10;87.00;;;;;;6199634;23;20000;-89
2020/12/23 12:15:50;;;;;;;4.18;2.25;;;24.10;85.50;;;;;;6225520;23;20038;-85
2020/12/23 12:18:17;;;;;;;6.40;2.50;;;24.20;85.50;;;;;;6225296;23;20011;-87
2020/12/23 12:20:44;;;;;;;8.80;3.30;;;24.10;87.30;;;;;;6225519;23;20188;-89
2020/12/23 12:23:14;;;;;;;11.70;3.40;;;23.90;90.90;;;;;;6226580;23;20035;-89
2020/12/23 12:25:44;;;;;;;7.93;4.15;;;23.80;91.40;;;;;;6200642;23;19999;-92
2020/12/23 12:28:15;;;;;;;9.73;5.10;;;23.80;91.80;;;;;;6202411;23;20023;-94
2020/12/23 12:30:41;;;;;;;11.20;4.13;;;23.70;92.80;;;;;;6205135;23;19997;-95
2020/12/23 12:33:15;;;;;;;11.00;4.25;;;23.70;93.40;;;;;;6207205;23;20000;-94
2020/12/23 12:35:44;;;;;;;9.50;4.00;;;23.70;93.30;;;;;;6229846;23;19999;-92
2020/12/23 12:38:11;;;;;;;10.80;4.32;;;23.80;93.50;;;;;;6229806;23;20268;-91
2020/12/23 12:40:41;;;;;;;8.65;4.68;;;23.80;93.40;;;;;;6232436;23;19996;-89
2020/12/23 12:43:07;;;;;;;12.40;5.28;;;23.80;93.00;;;;;;6201499;23;20028;-91
2020/12/23 12:45:40;;;;;;;8.27;4.18;;;23.90;93.30;;;;;;6201096;23;19996;-89
2020/12/23 12:48:18;;;;;;;6.40;4.13;;;23.90;93.40;;;;;;6229823;23;20339;-92
2020/12/23 12:50:45;;;;;;;14.73;5.53;;;23.80;94.40;;;;;;6202268;23;20255;-92
2020/12/23 12:53:13;;;;;;;12.00;4.93;;;23.80;93.90;;;;;;6202826;23;20008;-93
2020/12/23 12:55:40;;;;;;;9.65;5.10;;;23.90;93.10;;;;;;6229168;23;19995;-93
2020/12/23 12:58:06;;;;;;;9.77;5.03;;;24.10;93.50;;;;;;6202592;23;20001;-93
2020/12/23 13:00:34;;;;;;;7.00;4.43;;;24.10;94.10;;;;;;6228929;23;19993;-94
2020/12/23 13:03:01;;;;;;;8.82;4.25;;;24.10;94.30;;;;;;6202739;23;20004;-93
2020/12/23 13:05:27;;;;;;;8.43;4.50;;;24.20;94.70;;;;;;6202655;23;19997;-95
2020/12/23 13:07:54;;;;;;;13.00;5.95;;;24.20;94.60;;;;;;6203261;23;20005;-93
2020/12/23 13:10:21;;;;;;;9.48;5.20;;;24.10;95.20;;;;;;6202829;23;20449;-95
2020/12/23 13:12:47;;;;;;;6.88;5.10;;;24.20;95.00;;;;;;6202393;23;20005;-94
2020/12/23 13:15:14;;;;;;;10.32;5.40;;;24.40;94.80;;;;;;6229749;23;20008;-94
2020/12/23 13:17:44;;;;;;;7.03;4.05;;;24.40;95.10;;;;;;6205937;23;20008;-91
2020/12/23 13:20:16;;;;;;;5.43;4.25;;;24.40;95.00;;;;;;6204508;23;20019;-93
2020/12/23 13:22:45;;;;;;;5.72;3.13;;;24.30;95.10;;;;;;6207836;23;20338;-93
2020/12/23 13:25:13;;;;;;;4.80;3.40;;;24.20;95.40;;;;;;6207835;23;19997;-93
2020/12/23 13:27:52;;;;;;;6.03;3.30;;;24.10;95.50;;;;;;6207268;23;20292;-95
2020/12/23 13:30:22;;;;;;;5.20;2.72;;;24.10;95.70;;;;;;6201951;23;19992;-92
2020/12/23 13:33:22;;;;;;;3.63;2.60;;;24.00;95.80;;;;;;6168120;23;20005;-92
2020/12/23 13:35:50;;;;;;;3.22;2.25;;;24.10;95.50;;;;;;6142887;23;19997;-92